Time;durP1;ratioP1;P1;durP2;ratioP2;P2;SDS_P1;SDS_P2;PMS_P1;PMS_P2;Temp;Humidity;BMP_temperature;BMP_pressure;BME280_temperature;BME280_humidity;BME280_pressure;Samples;Min_cycle;Max_cycle;Signal;HPM_P1;HPM_P2
2021/10/29 00:00:20;;;;;;;199.70;36.73;;;9.70;99.90;;;;;;5034547;28;20577;-76
2021/10/29 00:03:01;;;;;;;170.90;33.90;;;9.70;99.90;;;;;;5034728;28;20465;-76
2021/10/29 00:05:29;;;;;;;229.40;48.67;;;9.60;99.90;;;;;;5034552;28;21046;-76
2021/10/29 00:07:57;;;;;;;190.27;41.37;;;9.60;99.90;;;;;;5035374;28;20482;-76
2021/10/29 00:10:26;;;;;;;161.53;43.50;;;9.60;99.90;;;;;;5034962;28;20470;-76
2021/10/29 00:12:56;;;;;;;233.50;50.23;;;9.60;99.90;;;;;;5034443;28;20987;-76
2021/10/29 00:15:24;;;;;;;145.47;35.03;;;9.50;99.90;;;;;;5035686;28;20466;-76
2021/10/29 00:17:52;;;;;;;210.87;43.67;;;9.50;99.90;;;;;;5035622;28;20442;-75
2021/10/29 00:20:20;;;;;;;208.90;45.17;;;9.50;99.90;;;;;;5035692;28;20487;-76
2021/10/29 00:22:49;;;;;;;310.70;54.93;;;9.50;99.90;;;;;;5034233;28;20447;-75
2021/10/29 00:25:18;;;;;;;239.87;44.53;;;9.50;99.90;;;;;;5034192;28;20901;-76
2021/10/29 00:27:47;;;;;;;201.63;40.00;;;9.40;99.90;;;;;;5034139;28;20454;-75
2021/10/29 00:30:16;;;;;;;156.67;35.63;;;9.40;99.90;;;;;;5034040;28;20476;-75
2021/10/29 00:32:45;;;;;;;104.00;35.47;;;9.40;99.90;;;;;;5034889;28;20805;-75
2021/10/29 00:35:13;;;;;;;219.77;46.30;;;9.40;99.90;;;;;;5033998;28;21039;-76
2021/10/29 00:37:41;;;;;;;235.53;44.13;;;9.30;99.90;;;;;;5035331;28;20470;-76
2021/10/29 00:40:12;;;;;;;174.93;48.60;;;9.30;99.90;;;;;;5033911;28;20548;-76
2021/10/29 00:42:41;;;;;;;201.27;46.23;;;9.30;99.90;;;;;;5035772;28;20514;-75
2021/10/29 00:45:10;;;;;;;225.10;41.57;;;9.30;99.90;;;;;;5035633;28;20447;-76
2021/10/29 00:47:40;;;;;;;188.97;39.63;;;9.30;99.90;;;;;;5035079;28;20438;-76
2021/10/29 00:50:12;;;;;;;233.67;45.30;;;9.20;99.90;;;;;;5033778;28;20471;-75
2021/10/29 00:52:41;;;;;;;201.23;47.13;;;9.20;99.90;;;;;;5033767;28;20478;-75
2021/10/29 00:55:10;;;;;;;217.67;45.70;;;9.20;99.90;;;;;;5033704;28;20458;-76
2021/10/29 00:57:40;;;;;;;268.13;51.50;;;9.20;99.90;;;;;;5035175;28;20439;-75
2021/10/29 01:00:10;;;;;;;171.23;41.33;;;9.10;99.90;;;;;;5034738;28;20471;-76
2021/10/29 01:02:40;;;;;;;253.17;51.33;;;9.10;99.90;;;;;;5033537;28;20538;-75
2021/10/29 01:05:09;;;;;;;227.90;53.57;;;9.10;99.90;;;;;;5033539;28;20450;-75
2021/10/29 01:07:37;;;;;;;148.50;39.03;;;9.10;99.90;;;;;;5033364;28;20972;-75
2021/10/29 01:10:06;;;;;;;97.20;35.23;;;9.10;99.90;;;;;;5033366;28;20463;-76
2021/10/29 01:12:34;;;;;;;201.40;40.77;;;9.10;99.90;;;;;;5034647;28;20435;-75
2021/10/29 01:15:07;;;;;;;192.60;45.43;;;9.10;99.90;;;;;;5033274;28;20821;-75
2021/10/29 01:17:36;;;;;;;236.47;48.77;;;9.00;99.90;;;;;;5033307;28;20471;-76
2021/10/29 01:20:08;;;;;;;275.20;49.17;;;9.00;99.90;;;;;;5065487;28;20577;-76
2021/10/29 01:22:38;;;;;;;211.30;42.63;;;9.00;99.90;;;;;;5033225;28;20451;-75
2021/10/29 01:25:09;;;;;;;257.27;49.10;;;9.00;99.90;;;;;;5034635;28;20450;-76
2021/10/29 01:27:37;;;;;;;179.60;39.77;;;9.00;99.90;;;;;;5066415;28;20899;-76
2021/10/29 01:30:07;;;;;;;204.83;41.87;;;9.00;99.90;;;;;;5032895;28;20570;-76
2021/10/29 01:32:35;;;;;;;134.63;50.63;;;9.00;99.90;;;;;;5034474;28;20446;-75
2021/10/29 01:35:04;;;;;;;228.77;47.03;;;9.00;99.90;;;;;;5034022;28;20812;-76
2021/10/29 01:37:37;;;;;;;135.63;40.37;;;8.90;99.90;;;;;;5034496;28;20428;-76
2021/10/29 01:40:09;;;;;;;237.50;55.30;;;8.90;99.90;;;;;;5034210;28;20455;-76
2021/10/29 01:42:38;;;;;;;154.80;45.93;;;8.90;99.90;;;;;;5032820;28;20443;-75
2021/10/29 01:45:07;;;;;;;116.53;36.83;;;8.80;99.90;;;;;;5034604;28;20443;-75
2021/10/29 01:47:36;;;;;;;119.53;40.77;;;8.80;99.90;;;;;;5033912;28;20439;-76
2021/10/29 01:50:05;;;;;;;194.13;45.17;;;8.80;99.90;;;;;;5032580;28;20569;-75
2021/10/29 01:52:34;;;;;;;213.57;44.50;;;8.80;99.90;;;;;;5032584;28;20999;-76
2021/10/29 01:55:02;;;;;;;149.70;40.37;;;8.80;99.90;;;;;;5033804;28;20458;-76
2021/10/29 01:57:32;;;;;;;172.13;42.77;;;8.70;99.90;;;;;;5032566;28;20497;-76
2021/10/29 02:00:00;;;;;;;171.13;40.13;;;8.70;99.90;;;;;;5032381;28;20479;-76
2021/10/29 02:02:40;;;;;;;108.97;39.87;;;8.70;99.90;;;;;;5033741;28;20427;-76
2021/10/29 02:05:09;;;;;;;140.17;39.27;;;8.70;99.90;;;;;;5032572;28;20455;-76
2021/10/29 02:07:37;;;;;;;118.20;38.20;;;8.60;99.90;;;;;;5033662;28;20431;-76
2021/10/29 02:10:06;;;;;;;134.90;44.83;;;8.60;99.90;;;;;;5033603;28;20463;-76
2021/10/29 02:12:36;;;;;;;174.63;40.93;;;8.60;99.90;;;;;;5032355;28;20482;-76
2021/10/29 02:15:05;;;;;;;142.07;40.53;;;8.50;99.90;;;;;;5032309;28;20447;-76
2021/10/29 02:17:33;;;;;;;123.87;42.40;;;8.50;99.90;;;;;;5034050;28;20443;-76
2021/10/29 02:20:01;;;;;;;215.50;52.50;;;8.50;99.90;;;;;;5032463;28;20459;-76
2021/10/29 02:22:30;;;;;;;208.60;52.87;;;8.50;99.90;;;;;;5032210;28;20475;-75
2021/10/29 02:24:58;;;;;;;168.13;42.03;;;8.50;99.90;;;;;;5033771;28;20437;-75
2021/10/29 02:27:27;;;;;;;173.33;42.07;;;8.40;99.90;;;;;;5065393;28;20550;-76
2021/10/29 02:29:58;;;;;;;195.73;48.27;;;8.40;99.90;;;;;;5033642;28;20465;-75
2021/10/29 02:32:26;;;;;;;291.07;48.60;;;8.40;99.90;;;;;;5031954;28;20432;-76
2021/10/29 02:34:55;;;;;;;211.13;39.37;;;8.40;99.90;;;;;;5031775;28;20439;-75
2021/10/29 02:37:23;;;;;;;146.20;43.47;;;8.40;99.90;;;;;;5032112;28;20447;-76
2021/10/29 02:39:51;;;;;;;147.43;44.00;;;8.40;99.90;;;;;;5031928;28;20467;-76
2021/10/29 02:42:20;;;;;;;191.10;47.57;;;8.30;99.90;;;;;;5033139;28;20898;-75
2021/10/29 02:44:48;;;;;;;168.87;39.23;;;8.30;99.90;;;;;;5033267;28;20442;-76
2021/10/29 02:47:17;;;;;;;175.83;39.03;;;8.30;99.90;;;;;;5031913;28;20461;-75
2021/10/29 02:49:46;;;;;;;123.17;40.00;;;8.30;99.90;;;;;;5031728;28;20477;-76
2021/10/29 02:52:14;;;;;;;196.17;42.93;;;8.30;99.90;;;;;;5033104;28;20445;-76
2021/10/29 02:54:42;;;;;;;208.63;43.73;;;8.30;99.90;;;;;;5033374;28;20467;-76
2021/10/29 02:57:10;;;;;;;186.60;44.73;;;8.20;99.90;;;;;;5033295;28;20435;-76
2021/10/29 02:59:38;;;;;;;160.63;42.10;;;8.20;99.90;;;;;;5033242;28;20462;-75
2021/10/29 03:02:07;;;;;;;219.80;42.07;;;8.20;99.90;;;;;;5033306;28;20943;-76
2021/10/29 03:04:37;;;;;;;152.73;45.07;;;8.20;99.90;;;;;;5032008;28;20979;-75
2021/10/29 03:07:05;;;;;;;186.60;38.97;;;8.20;99.90;;;;;;5031776;28;20463;-75
2021/10/29 03:09:33;;;;;;;218.33;46.27;;;8.10;99.90;;;;;;5033215;28;20545;-75
2021/10/29 03:12:01;;;;;;;138.20;38.63;;;8.10;99.90;;;;;;5033050;28;20466;-75
2021/10/29 03:14:30;;;;;;;159.33;45.33;;;8.10;99.90;;;;;;5033222;28;20513;-75
2021/10/29 03:16:58;;;;;;;220.97;46.23;;;8.10;99.90;;;;;;5031557;28;20968;-75
2021/10/29 03:19:26;;;;;;;138.67;40.57;;;8.10;99.90;;;;;;5033094;28;20462;-76
2021/10/29 03:21:55;;;;;;;102.17;36.03;;;8.10;99.90;;;;;;5033048;28;20499;-76
2021/10/29 03:24:23;;;;;;;181.20;40.60;;;8.10;99.90;;;;;;5033440;28;20438;-76
2021/10/29 03:26:56;;;;;;;152.77;38.00;;;8.10;99.90;;;;;;5032853;28;20517;-75
2021/10/29 03:29:24;;;;;;;245.77;44.63;;;8.10;99.90;;;;;;5032952;28;20450;-75
2021/10/29 03:31:52;;;;;;;219.80;41.97;;;8.10;99.90;;;;;;5033211;28;20490;-76
2021/10/29 03:34:21;;;;;;;131.33;38.73;;;8.10;99.90;;;;;;5031464;28;20446;-76
2021/10/29 03:36:49;;;;;;;186.60;50.20;;;8.10;99.90;;;;;;5031413;28;20502;-76
2021/10/29 03:39:23;;;;;;;182.03;39.90;;;8.00;99.90;;;;;;5032759;28;20542;-75
2021/10/29 03:41:55;;;;;;;253.17;53.50;;;8.00;99.90;;;;;;5031558;28;20499;-76
2021/10/29 03:44:30;;;;;;;178.63;38.20;;;8.00;99.90;;;;;;5034241;28;20453;-75
2021/10/29 03:46:59;;;;;;;130.53;39.53;;;8.00;99.90;;;;;;5035045;28;20446;-75
2021/10/29 03:49:32;;;;;;;294.77;56.03;;;8.00;99.90;;;;;;5034938;28;20557;-76
2021/10/29 03:52:06;;;;;;;133.93;39.83;;;8.00;99.90;;;;;;5036410;28;20502;-75
2021/10/29 03:54:36;;;;;;;202.93;36.70;;;8.00;99.90;;;;;;5036195;28;20422;-75
2021/10/29 03:57:22;;;;;;;138.73;42.67;;;8.00;99.90;;;;;;5034784;28;20949;-75
2021/10/29 03:59:50;;;;;;;160.97;44.37;;;8.00;99.90;;;;;;5034720;28;20554;-75
2021/10/29 04:02:19;;;;;;;269.63;43.37;;;8.00;99.90;;;;;;5034645;28;20477;-76
2021/10/29 04:04:47;;;;;;;178.53;35.80;;;8.00;99.90;;;;;;5036141;28;20892;-75
2021/10/29 04:07:15;;;;;;;221.57;38.17;;;8.00;99.90;;;;;;5034610;28;20451;-76
2021/10/29 04:09:45;;;;;;;138.57;37.30;;;8.00;99.90;;;;;;5034475;28;20561;-76
2021/10/29 04:12:15;;;;;;;205.53;40.90;;;7.90;99.90;;;;;;5067843;28;20541;-75
2021/10/29 04:14:43;;;;;;;172.10;40.30;;;7.90;99.90;;;;;;5034446;28;20993;-76
2021/10/29 04:17:11;;;;;;;175.80;44.93;;;7.90;99.90;;;;;;5035688;28;20449;-75
2021/10/29 04:19:39;;;;;;;122.67;34.50;;;7.90;99.90;;;;;;5035682;28;20625;-75
2021/10/29 04:22:07;;;;;;;240.97;46.47;;;7.90;99.90;;;;;;5035827;28;20569;-76
2021/10/29 04:24:36;;;;;;;174.87;39.17;;;7.90;99.90;;;;;;5034317;28;20435;-75
2021/10/29 04:27:05;;;;;;;161.63;38.30;;;7.90;99.90;;;;;;5034284;28;20443;-75
2021/10/29 04:29:38;;;;;;;182.80;41.17;;;7.90;99.90;;;;;;5035672;28;20546;-76
2021/10/29 04:32:07;;;;;;;145.17;33.87;;;7.90;99.90;;;;;;5034289;28;20948;-75
2021/10/29 04:34:35;;;;;;;168.63;44.53;;;7.90;99.90;;;;;;5034103;28;20541;-75
2021/10/29 04:37:04;;;;;;;202.43;41.20;;;7.90;99.90;;;;;;5034036;28;20534;-75
2021/10/29 04:39:32;;;;;;;268.13;44.33;;;7.90;99.90;;;;;;5034108;28;20902;-75
2021/10/29 04:42:01;;;;;;;126.47;39.63;;;7.90;99.90;;;;;;5035250;28;20467;-75
2021/10/29 04:44:30;;;;;;;139.17;39.97;;;7.90;99.90;;;;;;5033912;28;20439;-75
2021/10/29 04:46:58;;;;;;;214.57;40.73;;;7.80;99.90;;;;;;5033918;28;20455;-75
2021/10/29 04:49:26;;;;;;;215.37;41.43;;;7.80;99.90;;;;;;5033734;28;20466;-75
2021/10/29 04:51:54;;;;;;;161.87;38.80;;;7.80;99.90;;;;;;5035064;28;20467;-75
2021/10/29 04:54:22;;;;;;;150.40;33.73;;;7.80;99.90;;;;;;5036109;28;20443;-76
2021/10/29 04:56:54;;;;;;;191.20;40.87;;;7.80;99.90;;;;;;5035281;28;20510;-76
2021/10/29 04:59:22;;;;;;;160.63;36.93;;;7.80;99.90;;;;;;5035047;28;20541;-76
2021/10/29 05:01:52;;;;;;;165.63;35.70;;;7.80;99.90;;;;;;5066778;28;20553;-75
2021/10/29 05:04:20;;;;;;;177.77;42.57;;;7.80;99.90;;;;;;5035032;28;20860;-75
2021/10/29 05:06:48;;;;;;;156.73;42.87;;;7.80;99.90;;;;;;5034886;28;20450;-76
2021/10/29 05:09:16;;;;;;;153.20;42.80;;;7.80;99.90;;;;;;5033339;28;20478;-76
2021/10/29 05:11:45;;;;;;;201.07;48.53;;;7.70;99.90;;;;;;5034977;28;20441;-75
2021/10/29 05:14:15;;;;;;;171.50;38.47;;;7.70;99.90;;;;;;5033281;28;20500;-76
2021/10/29 05:16:43;;;;;;;172.27;46.33;;;7.70;99.90;;;;;;5033374;28;20486;-75
2021/10/29 05:19:12;;;;;;;169.00;38.70;;;7.70;99.90;;;;;;5034448;28;20435;-75
2021/10/29 05:21:40;;;;;;;155.90;37.63;;;7.70;99.90;;;;;;5034421;28;20434;-75
2021/10/29 05:24:09;;;;;;;132.53;32.53;;;7.70;99.90;;;;;;5033063;28;20569;-76
2021/10/29 05:26:38;;;;;;;193.80;44.97;;;7.70;99.90;;;;;;5033392;28;20521;-76
2021/10/29 05:29:06;;;;;;;167.53;34.33;;;7.70;99.90;;;;;;5034269;28;20439;-76
2021/10/29 05:31:34;;;;;;;256.83;41.70;;;7.70;99.90;;;;;;5033038;28;20446;-75
2021/10/29 05:34:03;;;;;;;205.27;44.67;;;7.60;99.90;;;;;;5032968;28;20526;-75
2021/10/29 05:36:33;;;;;;;251.33;42.33;;;7.60;99.90;;;;;;5032998;28;20824;-75
2021/10/29 05:39:01;;;;;;;129.73;33.83;;;7.60;99.90;;;;;;5032901;28;20498;-75
2021/10/29 05:41:29;;;;;;;261.50;45.00;;;7.60;99.90;;;;;;5032871;28;20513;-76
2021/10/29 05:43:57;;;;;;;167.47;38.73;;;7.60;99.90;;;;;;5034260;28;20477;-76
2021/10/29 05:46:30;;;;;;;131.07;36.83;;;7.60;99.90;;;;;;5032740;28;20499;-76
2021/10/29 05:48:58;;;;;;;208.50;40.90;;;7.60;99.90;;;;;;5034156;28;20434;-76
2021/10/29 05:51:27;;;;;;;153.57;37.90;;;7.60;99.90;;;;;;5032654;28;20877;-76
2021/10/29 05:54:11;;;;;;;94.67;33.40;;;7.60;99.90;;;;;;5033805;28;21003;-76
2021/10/29 05:56:39;;;;;;;87.33;30.20;;;7.60;99.90;;;;;;5032688;28;20493;-76
2021/10/29 05:59:07;;;;;;;154.97;38.30;;;7.60;99.90;;;;;;5032995;28;20497;-76
2021/10/29 06:01:35;;;;;;;148.80;37.23;;;7.60;99.90;;;;;;5034273;28;20526;-76
2021/10/29 06:04:04;;;;;;;126.77;30.90;;;7.60;99.90;;;;;;5065752;28;20474;-75
2021/10/29 06:06:32;;;;;;;206.53;43.27;;;7.60;99.90;;;;;;5031987;28;20550;-76
2021/10/29 06:09:02;;;;;;;272.67;43.03;;;7.60;99.90;;;;;;5032286;28;20447;-76
2021/10/29 06:11:30;;;;;;;201.60;38.47;;;7.50;99.90;;;;;;5032274;28;20451;-75
2021/10/29 06:13:58;;;;;;;202.40;45.23;;;7.50;99.90;;;;;;5033549;28;20451;-75
2021/10/29 06:16:27;;;;;;;140.97;30.20;;;7.50;99.90;;;;;;5032304;28;20538;-75
2021/10/29 06:18:57;;;;;;;184.43;33.97;;;7.50;99.90;;;;;;5033530;28;20443;-76
2021/10/29 06:21:32;;;;;;;215.83;36.03;;;7.50;99.90;;;;;;5033455;28;20446;-75
2021/10/29 06:24:06;;;;;;;203.77;38.50;;;7.50;99.90;;;;;;5032145;28;20462;-76
2021/10/29 06:26:43;;;;;;;151.33;42.33;;;7.50;99.90;;;;;;5032236;28;20940;-76
2021/10/29 06:29:11;;;;;;;183.03;40.00;;;7.50;99.90;;;;;;5032401;28;20447;-76
2021/10/29 06:31:41;;;;;;;199.47;42.80;;;7.50;99.90;;;;;;5065424;28;20447;-76
2021/10/29 06:34:10;;;;;;;186.93;36.83;;;7.50;99.90;;;;;;5033330;28;20492;-75
2021/10/29 06:36:39;;;;;;;158.90;38.50;;;7.50;99.90;;;;;;5031923;28;20458;-76
2021/10/29 06:39:09;;;;;;;210.13;43.27;;;7.50;99.90;;;;;;5031892;28;20455;-76
2021/10/29 06:41:37;;;;;;;170.57;38.73;;;7.50;99.90;;;;;;5033215;28;20443;-75
2021/10/29 06:44:21;;;;;;;184.03;44.33;;;7.50;99.90;;;;;;5033126;28;20471;-76
2021/10/29 06:47:10;;;;;;;151.17;33.73;;;7.60;99.90;;;;;;5031924;28;20439;-75
2021/10/29 06:59:10;;;;;;;178.40;39.60;;;7.60;99.90;;;;;;5033506;28;20451;-76
2021/10/29 07:00:55;;;;;;;232.07;42.80;;;7.60;99.90;;;;;;5031812;28;20474;-76
2021/10/29 07:03:45;;;;;;;148.27;40.47;;;7.60;99.90;;;;;;5033272;28;20548;-76
2021/10/29 07:12:14;;;;;;;158.00;33.53;;;7.80;99.90;;;;;;5032987;28;20435;-76
2021/10/29 07:40:02;;;;;;;202.77;45.47;;;8.10;99.90;;;;;;5068640;28;20906;-76
2021/10/29 07:42:35;;;;;;;164.80;35.37;;;8.10;99.90;;;;;;5035188;28;20534;-76
2021/10/29 07:45:05;;;;;;;249.37;41.13;;;8.20;99.90;;;;;;5035044;28;20467;-75
2021/10/29 07:47:34;;;;;;;231.47;42.73;;;8.20;99.90;;;;;;5036360;28;20458;-75
2021/10/29 07:50:02;;;;;;;165.53;38.40;;;8.30;99.90;;;;;;5036348;28;20459;-75
2021/10/29 07:52:30;;;;;;;199.57;34.27;;;8.30;99.90;;;;;;5035041;28;20990;-75
2021/10/29 07:54:58;;;;;;;160.73;35.97;;;8.40;99.90;;;;;;5035034;28;20443;-75
2021/10/29 07:57:26;;;;;;;190.10;46.47;;;8.50;99.90;;;;;;5034870;28;20541;-76
2021/10/29 07:59:56;;;;;;;216.83;48.90;;;8.50;99.90;;;;;;5034753;28;20481;-75
2021/10/29 08:02:26;;;;;;;210.17;43.13;;;8.60;99.90;;;;;;5036391;28;20443;-75
2021/10/29 08:04:54;;;;;;;144.03;41.20;;;8.70;99.90;;;;;;5034641;28;20968;-75
2021/10/29 08:07:23;;;;;;;223.83;41.93;;;8.80;99.90;;;;;;5035961;28;20529;-75
2021/10/29 08:09:51;;;;;;;143.00;36.80;;;8.90;99.90;;;;;;5034611;28;20529;-75
2021/10/29 08:12:20;;;;;;;251.07;47.60;;;9.00;99.90;;;;;;5035794;28;20446;-76
2021/10/29 08:14:49;;;;;;;290.80;54.13;;;9.00;99.90;;;;;;5034649;28;20443;-76
2021/10/29 08:17:18;;;;;;;237.57;46.90;;;9.10;99.90;;;;;;5034834;28;21013;-76
2021/10/29 08:19:48;;;;;;;240.63;51.37;;;9.20;99.90;;;;;;5035719;28;20554;-75
2021/10/29 08:22:16;;;;;;;312.03;44.57;;;9.20;99.90;;;;;;5035711;28;20534;-75
2021/10/29 08:24:44;;;;;;;257.03;48.63;;;9.30;99.90;;;;;;5035659;28;20969;-75
2021/10/29 08:27:13;;;;;;;237.30;42.03;;;9.40;99.90;;;;;;5034377;28;20447;-75
2021/10/29 08:29:41;;;;;;;269.87;44.83;;;9.40;99.90;;;;;;5033897;28;20474;-75
2021/10/29 08:32:10;;;;;;;199.23;45.10;;;9.50;99.90;;;;;;5035814;28;20439;-75
2021/10/29 08:34:38;;;;;;;174.10;40.60;;;9.60;99.90;;;;;;5034019;28;20534;-76
2021/10/29 08:37:09;;;;;;;188.57;44.00;;;9.70;99.90;;;;;;5034913;28;20487;-75
2021/10/29 08:39:38;;;;;;;189.47;35.77;;;9.80;99.90;;;;;;5035564;28;20489;-76
2021/10/29 08:42:07;;;;;;;248.40;53.10;;;9.80;99.90;;;;;;5036219;28;20551;-75
2021/10/29 08:44:36;;;;;;;236.47;39.97;;;9.90;99.90;;;;;;5033996;28;20470;-76
2021/10/29 08:47:05;;;;;;;347.17;53.77;;;10.00;99.90;;;;;;5035601;28;20427;-75
2021/10/29 08:49:35;;;;;;;289.17;51.90;;;10.10;99.90;;;;;;5035380;28;20815;-75
2021/10/29 08:52:10;;;;;;;292.20;47.23;;;10.20;99.90;;;;;;5033908;28;20458;-76
2021/10/29 08:54:38;;;;;;;235.00;43.47;;;10.30;99.90;;;;;;5035432;28;20978;-75
2021/10/29 08:57:07;;;;;;;385.57;66.73;;;10.40;99.90;;;;;;5033799;28;20497;-75
2021/10/29 08:59:39;;;;;;;307.77;71.57;;;10.40;99.90;;;;;;5033668;28;20463;-75
2021/10/29 09:02:13;;;;;;;318.60;65.07;;;10.50;99.90;;;;;;5035008;28;20518;-75
2021/10/29 09:04:52;;;;;;;407.73;108.23;;;10.60;99.90;;;;;;5033661;28;20467;-75
2021/10/29 09:07:34;;;;;;;340.00;66.53;;;10.60;99.90;;;;;;5033622;28;20443;-75
2021/10/29 09:10:24;;;;;;;350.67;89.37;;;10.70;99.90;;;;;;5034692;28;21018;-75
2021/10/29 09:32:27;;;;;;;544.50;122.97;;;11.40;99.90;;;;;;5034621;28;20435;-75
2021/10/29 09:35:05;;;;;;;293.00;69.30;;;11.60;99.90;;;;;;5034315;28;20439;-76
2021/10/29 09:37:37;;;;;;;413.70;98.17;;;11.60;99.90;;;;;;5033540;28;20499;-75
2021/10/29 09:40:34;;;;;;;327.10;72.37;;;11.70;99.90;;;;;;5033297;28;20475;-76
2021/10/29 09:43:13;;;;;;;375.00;89.17;;;11.80;99.90;;;;;;5034260;28;20427;-75
2021/10/29 09:45:47;;;;;;;219.47;69.80;;;11.90;99.90;;;;;;5034418;28;20463;-76
2021/10/29 09:48:19;;;;;;;39.87;23.53;;;11.90;99.90;;;;;;5033642;28;20444;-75
2021/10/29 09:50:51;;;;;;;362.77;135.00;;;12.00;99.90;;;;;;5034121;28;20486;-75
2021/10/29 09:53:35;;;;;;;117.83;57.37;;;12.10;99.90;;;;;;5034398;28;20427;-75
2021/10/29 09:56:07;;;;;;;257.73;80.53;;;12.10;99.90;;;;;;5066068;28;20443;-76
2021/10/29 09:58:36;;;;;;;344.87;158.37;;;12.20;99.90;;;;;;5032703;28;20449;-75
2021/10/29 10:01:05;;;;;;;753.67;232.73;;;12.30;99.90;;;;;;5033073;28;20471;-75
2021/10/29 10:03:34;;;;;;;944.10;272.47;;;12.40;99.90;;;;;;5033735;28;21018;-76
2021/10/29 10:06:03;;;;;;;1116.90;293.73;;;12.50;99.90;;;;;;5065746;28;20474;-75
2021/10/29 10:08:34;;;;;;;1700.37;476.13;;;12.50;99.90;;;;;;5034072;28;20949;-75
2021/10/29 10:11:05;;;;;;;1488.63;364.20;;;12.60;99.90;;;;;;5032665;28;21086;-75
2021/10/29 10:13:33;;;;;;;1887.97;509.03;;;12.70;99.90;;;;;;5033651;28;20450;-75
2021/10/29 10:16:04;;;;;;;1754.17;456.70;;;12.80;99.90;;;;;;5032389;28;20960;-75
2021/10/29 10:18:33;;;;;;;1629.53;436.87;;;12.90;99.90;;;;;;5033955;28;20415;-75
2021/10/29 10:21:05;;;;;;;1999.90;740.10;;;12.90;99.90;;;;;;5032252;28;20473;-76
2021/10/29 10:23:36;;;;;;;1999.90;836.23;;;13.10;99.90;;;;;;5032271;28;20489;-75
2021/10/29 10:43:13;;;;;;;1999.90;996.90;;;13.70;99.90;;;;;;5032283;28;20497;-76
2021/10/29 10:45:49;;;;;;;1999.90;916.00;;;13.80;99.90;;;;;;5033546;28;20501;-76
2021/10/29 10:48:24;;;;;;;1999.90;999.90;;;13.90;99.90;;;;;;5032099;28;20510;-75
2021/10/29 10:51:00;;;;;;;1999.90;974.20;;;14.00;99.90;;;;;;5033354;28;20490;-76
2021/10/29 10:53:42;;;;;;;1999.90;886.80;;;14.00;99.90;;;;;;5036813;28;20854;-76
2021/10/29 10:56:26;;;;;;;1999.90;999.90;;;14.20;99.90;;;;;;5036104;28;20525;-76
2021/10/29 10:59:27;;;;;;;1999.90;974.67;;;14.20;99.90;;;;;;5037443;28;20447;-75
2021/10/29 11:04:56;;;;;;;1999.90;939.33;;;14.40;99.90;;;;;;5069442;28;20430;-75
2021/10/29 11:10:20;;;;;;;1999.90;887.63;;;14.60;99.90;;;;;;5037052;28;20466;-75
2021/10/29 11:13:09;;;;;;;1999.90;771.90;;;14.70;99.90;;;;;;5035738;28;20453;-75
2021/10/29 11:15:39;;;;;;;1999.90;763.43;;;14.80;99.90;;;;;;5037689;28;20518;-75
2021/10/29 11:18:33;;;;;;;1999.90;753.17;;;14.90;99.90;;;;;;5036169;28;20463;-75
2021/10/29 11:21:08;;;;;;;1999.90;911.90;;;15.00;99.90;;;;;;5037499;28;20455;-75
2021/10/29 11:23:36;;;;;;;1999.90;812.30;;;15.00;99.90;;;;;;5035677;28;20416;-75
2021/10/29 11:26:08;;;;;;;1999.90;717.10;;;15.10;99.90;;;;;;5035363;28;20481;-75
2021/10/29 11:28:39;;;;;;;1999.90;679.93;;;15.20;99.90;;;;;;5035732;28;20496;-75
2021/10/29 11:31:11;;;;;;;1999.90;391.23;;;15.30;99.90;;;;;;5035269;28;20459;-76
2021/10/29 11:33:40;;;;;;;1999.90;698.40;;;15.30;99.90;;;;;;5035453;28;20413;-75
2021/10/29 11:36:10;;;;;;;1907.60;380.73;;;15.30;99.90;;;;;;5035066;28;20935;-75
2021/10/29 11:38:40;;;;;;;1999.90;608.63;;;15.40;99.90;;;;;;5036744;28;20408;-76
2021/10/29 11:41:11;;;;;;;1999.90;672.33;;;15.40;99.90;;;;;;5036373;28;20437;-75
2021/10/29 11:43:41;;;;;;;1999.90;986.63;;;15.40;99.90;;;;;;5068547;28;21017;-75
2021/10/29 11:46:13;;;;;;;1999.90;700.87;;;15.40;99.90;;;;;;5036294;28;20536;-75
2021/10/29 11:48:46;;;;;;;1999.90;590.30;;;15.50;99.90;;;;;;5036331;28;20454;-75
2021/10/29 11:51:16;;;;;;;1999.90;973.17;;;15.60;99.90;;;;;;5034974;28;20441;-75
2021/10/29 11:53:49;;;;;;;1999.90;841.63;;;15.60;99.90;;;;;;5034971;28;20450;-75
2021/10/29 11:56:33;;;;;;;1999.90;875.87;;;15.70;99.90;;;;;;5034939;28;20421;-75
2021/10/29 11:59:12;;;;;;;1999.90;733.30;;;15.70;99.90;;;;;;5036360;28;20517;-75
2021/10/29 12:01:54;;;;;;;1999.90;832.43;;;15.80;99.90;;;;;;5036618;28;20766;-75
2021/10/29 12:07:15;;;;;;;1999.90;940.70;;;15.90;99.90;;;;;;5036097;28;20532;-75
2021/10/29 12:09:44;;;;;;;1999.90;596.17;;;15.90;99.90;;;;;;5067811;28;20553;-75
2021/10/29 12:12:14;;;;;;;1999.90;741.03;;;16.00;99.90;;;;;;5034599;28;20454;-75
2021/10/29 12:14:45;;;;;;;1999.90;804.10;;;16.00;99.90;;;;;;5036319;28;20986;-75
2021/10/29 12:17:19;;;;;;;1999.90;528.07;;;16.00;99.90;;;;;;5034455;28;20422;-75
2021/10/29 12:19:51;;;;;;;1999.90;678.10;;;16.10;99.90;;;;;;5035578;28;20980;-75
2021/10/29 12:22:35;;;;;;;1999.90;751.47;;;16.10;99.90;;;;;;5034685;28;20461;-75
2021/10/29 12:25:11;;;;;;;1999.90;814.47;;;16.20;99.90;;;;;;5035992;28;20992;-75
2021/10/29 12:27:43;;;;;;;1999.90;383.00;;;16.20;99.90;;;;;;5034906;28;20441;-75
2021/10/29 12:30:22;;;;;;;1999.90;999.90;;;16.30;99.90;;;;;;5035766;28;20841;-75
2021/10/29 12:58:55;;;;;;;1999.90;287.30;;;16.50;99.90;;;;;;5035020;28;20427;-75
2021/10/29 13:01:28;;;;;;;1999.90;621.40;;;16.50;99.90;;;;;;5066923;28;20463;-75
2021/10/29 13:03:59;;;;;;;1999.90;698.30;;;16.50;99.90;;;;;;5035300;28;20404;-75
2021/10/29 13:06:35;;;;;;;1999.90;656.80;;;16.60;99.90;;;;;;5035295;28;20520;-75
2021/10/29 13:09:14;;;;;;;1999.90;646.47;;;16.60;99.90;;;;;;5033464;28;20435;-75
2021/10/29 13:11:52;;;;;;;1999.90;637.60;;;16.60;99.90;;;;;;5034707;28;20485;-75
2021/10/29 13:14:25;;;;;;;1999.90;778.07;;;16.60;99.90;;;;;;5033397;28;20953;-76
2021/10/29 13:16:55;;;;;;;1999.90;819.27;;;16.70;99.90;;;;;;5032529;28;20457;-76
2021/10/29 13:25:31;;;;;;;1999.90;600.57;;;16.80;99.90;;;;;;5027123;28;21010;-76
2021/10/29 13:36:23;;;;;;;1999.90;330.37;;;16.90;99.90;;;;;;5032879;28;20500;-75
2021/10/29 13:52:55;;;;;;;1999.90;809.90;;;16.70;99.90;;;;;;5066067;28;20508;-76
2021/10/29 13:55:51;;;;;;;1999.90;875.40;;;16.60;99.90;;;;;;5032739;28;20428;-76
2021/10/29 13:58:54;;;;;;;1999.90;981.50;;;16.60;99.90;;;;;;5032558;28;20422;-76
2021/10/29 14:01:44;;;;;;;1999.90;899.60;;;16.60;99.90;;;;;;5032342;28;20449;-76
2021/10/29 14:29:15;;;;;;;1999.90;926.17;;;16.30;99.90;;;;;;5032190;28;20483;-75
2021/10/29 14:31:47;;;;;;;1999.90;881.17;;;16.30;99.90;;;;;;5032159;28;20418;-75
2021/10/29 14:34:17;;;;;;;1999.90;917.87;;;16.30;99.90;;;;;;5032080;28;20845;-75
2021/10/29 14:36:51;;;;;;;1999.90;921.97;;;16.30;99.90;;;;;;5033212;28;20454;-76
2021/10/29 14:39:28;;;;;;;1999.90;913.97;;;16.30;99.90;;;;;;5012845;28;20457;-75
2021/10/29 14:42:05;;;;;;;1999.90;860.37;;;16.30;99.90;;;;;;5029003;28;20422;-75
2021/10/29 14:44:40;;;;;;;1999.90;999.90;;;16.30;99.90;;;;;;5012356;28;20872;-75
2021/10/29 14:47:24;;;;;;;1999.90;934.97;;;16.30;99.90;;;;;;5012186;28;20870;-75
2021/10/29 14:50:14;;;;;;;1999.90;999.90;;;16.30;99.90;;;;;;5012084;28;20980;-76
2021/10/29 14:53:13;;;;;;;1999.90;999.90;;;16.30;99.90;;;;;;5012187;28;20774;-76
2021/10/29 15:04:23;;;;;;;1999.90;968.03;;;16.20;99.90;;;;;;4978099;28;20452;-75
2021/10/29 15:18:20;;;;;;;1999.90;999.90;;;16.10;99.90;;;;;;5012067;28;20846;-75
2021/10/29 15:29:20;;;;;;;1999.90;882.90;;;16.00;99.90;;;;;;5012906;28;20429;-76
2021/10/29 15:32:09;;;;;;;1999.90;863.50;;;16.00;99.90;;;;;;5011843;28;20450;-75
2021/10/29 15:45:43;;;;;;;1999.90;814.17;;;15.80;99.90;;;;;;5015276;28;20406;-75
2021/10/29 15:48:16;;;;;;;1999.90;741.20;;;15.70;99.90;;;;;;5016649;28;20475;-75
2021/10/29 15:50:45;;;;;;;1999.90;737.53;;;15.70;99.90;;;;;;5048495;28;20466;-75
2021/10/29 15:53:14;;;;;;;1999.90;569.83;;;15.60;99.90;;;;;;5015202;28;20426;-75
2021/10/29 15:55:50;;;;;;;1550.97;395.27;;;15.60;99.90;;;;;;5015080;28;20451;-75
2021/10/29 15:58:36;;;;;;;1694.37;426.93;;;15.50;99.90;;;;;;5015072;28;20418;-75
2021/10/29 16:01:13;;;;;;;1463.03;385.20;;;15.50;99.90;;;;;;5015222;28;20574;-75
2021/10/29 16:17:28;;;;;;;1568.67;405.87;;;15.10;99.90;;;;;;5014781;28;20523;-75